Ulysses, Nebraska
Current Conditions -  °F | °C
As of 8:15 AM on Monday 26 Jan 2015 (Local Time) from KJYR Reporting Station
Clear Clear  
Wind Chill: 28°   Ceiling: Unl
Heat Index: 37°   Visibility: 10mi
Dew Point: 32°   Wind: 16mph
Humidity: 81%   Direction: 300°WNW
Pressure: 29.92"   Gusts: NA
Location:  41.07°N, 97.2°W
Report Text: KJYR 261415Z AUTO 30014KT 10SM CLR 03/00 A2992 RMK AO2
Loading
Personal Weather Stations






























Interactive Weather Map New forecast layout! Learn more

10-Day Weather Forecast

Advertisements
Track Severe Weather on mobile